Time;durP1;ratioP1;P1;durP2;ratioP2;P2;SDS_P1;SDS_P2;PMS_P1;PMS_P2;Temp;Humidity;BMP_temperature;BMP_pressure;BME280_temperature;BME280_humidity;BME280_pressure;Samples;Min_cycle;Max_cycle;Signal;HPM_P1;HPM_P2
2022/03/06 17:51:35;;;;;;;49.42;23.00;;;;;;;;;;5071752;28;20398;-85
2022/03/06 17:54:01;;;;;;;66.25;35.08;;;;;;;;;;5066663;28;20123;-89
2022/03/06 17:56:27;;;;;;;47.33;24.45;;;;;;;;;;5065452;28;20017;-90
2022/03/06 17:58:53;;;;;;;51.72;24.35;;;;;;;;;;5064158;28;20043;-86
2022/03/06 18:01:19;;;;;;;45.20;25.17;;;;;;;;;;5065123;28;20054;-90
2022/03/06 18:03:45;;;;;;;54.55;27.35;;;;;;;;;;5054530;28;20028;-87
2022/03/06 18:06:12;;;;;;;50.15;26.23;;;;;;;;;;5051791;28;20032;-85
2022/03/06 18:08:38;;;;;;;51.83;27.40;;;;;;;;;;5065385;28;20024;-93
2022/03/06 18:11:07;;;;;;;56.60;28.90;;;;;;;;;;5068923;28;20044;-85
2022/03/06 18:13:34;;;;;;;52.95;27.15;;;;;;;;;;5068961;28;20443;-86
2022/03/06 18:16:00;;;;;;;59.78;30.48;;;;;;;;;;5068375;28;20017;-88
2022/03/06 18:18:26;;;;;;;56.15;29.45;;;;;;;;;;5069683;28;20037;-86
2022/03/06 18:20:53;;;;;;;52.58;29.25;;;;;;;;;;5070759;28;20029;-91
2022/03/06 18:23:20;;;;;;;57.03;30.17;;;;;;;;;;5072422;28;20404;-85
2022/03/06 18:25:46;;;;;;;58.10;29.13;;;;;;;;;;5071935;28;20025;-86
2022/03/06 18:28:12;;;;;;;62.85;29.83;;;;;;;;;;5066580;28;20032;-85
2022/03/06 18:30:47;;;;;;;56.45;29.65;;;;;;;;;;5071424;28;20029;-85
2022/03/06 18:33:13;;;;;;;55.28;28.48;;;;;;;;;;5072990;28;20512;-85
2022/03/06 18:35:39;;;;;;;63.45;33.15;;;;;;;;;;5068601;28;20024;-87
2022/03/06 18:38:05;;;;;;;60.63;32.17;;;;;;;;;;5065714;28;20028;-87
2022/03/06 18:40:32;;;;;;;57.35;28.55;;;;;;;;;;5063890;28;20123;-86
2022/03/06 18:42:58;;;;;;;56.97;30.60;;;;;;;;;;5063751;28;20031;-88
2022/03/06 18:45:24;;;;;;;58.83;29.40;;;;;;;;;;5065832;28;20064;-89
2022/03/06 18:47:50;;;;;;;53.50;29.00;;;;;;;;;;5065532;28;20021;-87
2022/03/06 18:50:17;;;;;;;57.92;30.25;;;;;;;;;;5062475;28;20040;-86
2022/03/06 18:52:43;;;;;;;52.50;28.60;;;;;;;;;;5064433;28;20043;-88
2022/03/06 18:55:09;;;;;;;59.17;28.90;;;;;;;;;;5063738;28;20083;-87
2022/03/06 18:57:35;;;;;;;57.00;29.52;;;;;;;;;;5065127;28;20024;-87
2022/03/06 19:00:01;;;;;;;57.40;29.02;;;;;;;;;;5064037;28;20067;-86
2022/03/06 19:02:27;;;;;;;54.47;28.67;;;;;;;;;;5053268;28;20025;-87
2022/03/06 19:04:53;;;;;;;54.40;29.90;;;;;;;;;;5050720;28;20063;-87
2022/03/06 19:07:19;;;;;;;58.65;31.42;;;;;;;;;;5050491;28;20033;-87
2022/03/06 19:09:46;;;;;;;57.45;33.40;;;;;;;;;;5051046;28;20029;-88
2022/03/06 19:12:14;;;;;;;59.38;28.60;;;;;;;;;;5050168;28;20242;-88
2022/03/06 19:14:40;;;;;;;56.03;30.58;;;;;;;;;;5051049;28;20147;-87
2022/03/06 19:17:07;;;;;;;59.88;30.52;;;;;;;;;;5051008;28;20021;-87
2022/03/06 19:19:33;;;;;;;59.97;32.50;;;;;;;;;;5051173;28;20493;-87
2022/03/06 19:21:59;;;;;;;58.83;29.17;;;;;;;;;;5050390;28;20033;-86
2022/03/06 19:24:25;;;;;;;54.88;30.20;;;;;;;;;;5050433;28;20017;-85
2022/03/06 19:26:51;;;;;;;55.08;29.75;;;;;;;;;;5048857;28;20021;-85
2022/03/06 19:29:18;;;;;;;58.08;31.15;;;;;;;;;;5048695;28;20025;-85
2022/03/06 19:31:49;;;;;;;53.33;29.30;;;;;;;;;;5050829;28;20028;-86
2022/03/06 19:34:15;;;;;;;56.17;28.05;;;;;;;;;;5049287;28;20475;-87
2022/03/06 19:36:41;;;;;;;56.92;30.33;;;;;;;;;;5050146;28;20055;-85
2022/03/06 19:39:07;;;;;;;61.72;30.95;;;;;;;;;;5050904;28;20025;-86
2022/03/06 19:41:33;;;;;;;66.97;33.17;;;;;;;;;;5051813;28;20036;-87
2022/03/06 19:44:00;;;;;;;56.70;30.50;;;;;;;;;;5050196;28;20017;-86
2022/03/06 19:46:26;;;;;;;63.40;34.80;;;;;;;;;;5045873;28;20033;-86
2022/03/06 19:48:52;;;;;;;67.78;36.70;;;;;;;;;;5048306;28;20112;-84
2022/03/06 19:51:18;;;;;;;105.68;53.78;;;;;;;;;;5048033;28;20190;-84
2022/03/06 19:53:46;;;;;;;88.97;47.70;;;;;;;;;;5050054;28;20021;-85
2022/03/06 19:56:12;;;;;;;69.37;35.63;;;;;;;;;;5048775;28;20033;-87
2022/03/06 19:58:39;;;;;;;63.42;31.80;;;;;;;;;;5050217;28;20499;-88
2022/03/06 20:01:06;;;;;;;58.08;29.83;;;;;;;;;;5048703;28;20405;-88
2022/03/06 20:03:32;;;;;;;58.85;31.30;;;;;;;;;;5048254;28;20504;-88
2022/03/06 20:05:58;;;;;;;55.80;29.92;;;;;;;;;;5047148;28;20511;-89
2022/03/06 20:08:24;;;;;;;62.75;36.45;;;;;;;;;;5049564;28;20036;-85
2022/03/06 20:10:50;;;;;;;62.08;32.53;;;;;;;;;;5049013;28;20127;-87
2022/03/06 20:13:16;;;;;;;59.05;31.20;;;;;;;;;;5048457;28;20520;-87
2022/03/06 20:15:42;;;;;;;71.78;36.83;;;;;;;;;;5048600;28;20033;-86
2022/03/06 20:18:09;;;;;;;57.63;31.33;;;;;;;;;;5049790;28;20056;-85
2022/03/06 20:20:35;;;;;;;67.63;33.95;;;;;;;;;;5049858;28;20020;-88
2022/03/06 20:23:01;;;;;;;65.95;33.08;;;;;;;;;;5049159;28;20036;-86
2022/03/06 20:25:27;;;;;;;66.97;37.47;;;;;;;;;;5049161;28;20477;-85
2022/03/06 20:27:53;;;;;;;56.03;30.25;;;;;;;;;;5049102;28;20036;-85
2022/03/06 20:30:20;;;;;;;65.95;32.00;;;;;;;;;;5048611;28;20033;-86
2022/03/06 20:32:48;;;;;;;65.55;32.08;;;;;;;;;;5049184;28;20025;-86
2022/03/06 20:35:16;;;;;;;60.80;29.80;;;;;;;;;;5048510;28;20028;-87
2022/03/06 20:37:42;;;;;;;61.10;31.02;;;;;;;;;;5048770;28;20025;-87
2022/03/06 20:40:10;;;;;;;58.97;30.75;;;;;;;;;;5049560;28;20025;-87
2022/03/06 20:42:36;;;;;;;54.83;28.58;;;;;;;;;;5049517;28;20095;-87
2022/03/06 20:45:02;;;;;;;63.78;33.30;;;;;;;;;;5048403;28;20389;-87
2022/03/06 20:47:28;;;;;;;66.03;34.13;;;;;;;;;;5028795;28;20032;-88
2022/03/06 20:49:55;;;;;;;62.38;31.98;;;;;;;;;;5028724;28;20439;-88
2022/03/06 20:52:21;;;;;;;62.08;30.73;;;;;;;;;;5040553;28;20037;-86
2022/03/06 20:54:47;;;;;;;58.53;31.75;;;;;;;;;;5047292;28;20025;-85
2022/03/06 20:57:14;;;;;;;54.38;29.27;;;;;;;;;;5045682;28;20028;-85
2022/03/06 20:59:40;;;;;;;57.53;30.65;;;;;;;;;;5048060;28;20515;-88
2022/03/06 21:02:06;;;;;;;58.67;31.42;;;;;;;;;;5046907;28;20500;-85
2022/03/06 21:04:33;;;;;;;54.13;29.35;;;;;;;;;;5046253;28;20021;-85
2022/03/06 21:07:00;;;;;;;58.28;28.70;;;;;;;;;;5047084;28;20075;-86
2022/03/06 21:09:26;;;;;;;55.83;28.85;;;;;;;;;;5047255;28;20024;-87
2022/03/06 21:11:52;;;;;;;60.65;32.67;;;;;;;;;;5047216;28;20033;-87
2022/03/06 21:14:19;;;;;;;64.85;31.83;;;;;;;;;;5048256;28;20032;-86
2022/03/06 21:16:45;;;;;;;62.28;31.08;;;;;;;;;;5046891;28;20067;-87
2022/03/06 21:19:12;;;;;;;58.92;30.40;;;;;;;;;;5047184;28;20021;-85
2022/03/06 21:21:38;;;;;;;62.17;29.77;;;;;;;;;;5049205;28;20477;-86
2022/03/06 21:24:04;;;;;;;61.50;30.20;;;;;;;;;;5048206;28;20433;-94
2022/03/06 21:26:30;;;;;;;54.78;28.63;;;;;;;;;;5049119;28;20028;-87
2022/03/06 21:28:58;;;;;;;59.25;30.63;;;;;;;;;;5047320;28;20040;-89
2022/03/06 21:31:24;;;;;;;68.88;32.58;;;;;;;;;;5048993;28;20105;-88
2022/03/06 21:33:51;;;;;;;61.08;30.98;;;;;;;;;;5048039;28;20028;-85
2022/03/06 21:36:19;;;;;;;56.53;28.90;;;;;;;;;;5048645;28;20056;-92
2022/03/06 21:38:45;;;;;;;56.83;29.27;;;;;;;;;;5047686;28;20105;-87
2022/03/06 21:41:11;;;;;;;68.20;31.63;;;;;;;;;;5048264;28;20049;-83
2022/03/06 21:43:38;;;;;;;66.18;31.92;;;;;;;;;;5046862;28;20362;-84
2022/03/06 21:46:04;;;;;;;59.67;34.50;;;;;;;;;;5047432;28;20052;-86
2022/03/06 21:48:31;;;;;;;61.33;31.13;;;;;;;;;;5047732;28;20017;-90
2022/03/06 21:50:57;;;;;;;60.83;33.42;;;;;;;;;;5045920;28;20127;-88
2022/03/06 21:53:23;;;;;;;62.13;31.20;;;;;;;;;;5047632;28;20029;-88
2022/03/06 21:55:49;;;;;;;63.45;30.73;;;;;;;;;;5047358;28;20025;-83
2022/03/06 21:58:16;;;;;;;59.88;29.48;;;;;;;;;;5045738;28;20075;-83
2022/03/06 22:00:43;;;;;;;60.75;30.80;;;;;;;;;;5044417;28;20021;-83
2022/03/06 22:03:09;;;;;;;61.95;32.10;;;;;;;;;;5048588;28;20021;-83
2022/03/06 22:05:35;;;;;;;65.07;30.25;;;;;;;;;;5048278;28;20029;-83
2022/03/06 22:08:01;;;;;;;62.85;31.42;;;;;;;;;;5048600;28;20159;-83
2022/03/06 22:10:27;;;;;;;57.33;29.65;;;;;;;;;;5048620;28;20055;-83
2022/03/06 22:12:53;;;;;;;54.70;28.20;;;;;;;;;;5048387;28;20078;-85
2022/03/06 22:15:19;;;;;;;67.22;34.70;;;;;;;;;;5048261;28;20477;-85
2022/03/06 22:17:45;;;;;;;62.70;32.90;;;;;;;;;;5048339;28;20017;-84
2022/03/06 22:20:12;;;;;;;59.20;28.85;;;;;;;;;;5049615;28;20029;-84
2022/03/06 22:22:38;;;;;;;62.08;29.25;;;;;;;;;;5049241;28;20021;-84
2022/03/06 22:25:04;;;;;;;56.90;30.63;;;;;;;;;;5048241;28;20495;-84
2022/03/06 22:27:30;;;;;;;55.85;32.03;;;;;;;;;;5048285;28;20025;-84
2022/03/06 22:29:57;;;;;;;64.75;30.25;;;;;;;;;;5046975;28;20025;-84
2022/03/06 22:32:23;;;;;;;60.97;29.55;;;;;;;;;;5048226;28;20017;-84
2022/03/06 22:34:50;;;;;;;60.38;28.85;;;;;;;;;;5048345;28;20025;-83
2022/03/06 22:37:16;;;;;;;58.88;29.00;;;;;;;;;;5049127;28;20399;-86
2022/03/06 22:39:42;;;;;;;58.00;30.73;;;;;;;;;;5052827;28;20024;-84
2022/03/06 22:42:09;;;;;;;54.53;27.30;;;;;;;;;;5051492;28;20443;-84
2022/03/06 22:44:35;;;;;;;61.15;31.13;;;;;;;;;;5051897;28;20449;-84
2022/03/06 22:47:01;;;;;;;56.95;30.52;;;;;;;;;;5052024;28;20017;-84
2022/03/06 22:49:27;;;;;;;64.10;35.33;;;;;;;;;;5051652;28;20033;-84
2022/03/06 22:51:53;;;;;;;58.08;31.13;;;;;;;;;;5051813;28;20033;-84
2022/03/06 22:54:20;;;;;;;68.90;33.30;;;;;;;;;;5051743;28;20017;-86
2022/03/06 22:56:46;;;;;;;57.38;30.65;;;;;;;;;;5050476;28;20087;-84
2022/03/06 22:59:12;;;;;;;56.75;28.52;;;;;;;;;;5052438;28;20022;-84
2022/03/06 23:01:38;;;;;;;52.45;27.90;;;;;;;;;;5051526;28;20100;-84
2022/03/06 23:09:36;;;;;;;59.03;29.17;;;;;;;;;;5051116;28;20560;-84
2022/03/06 23:12:03;;;;;;;52.78;27.95;;;;;;;;;;5051507;28;20053;-83
2022/03/06 23:14:29;;;;;;;60.40;29.55;;;;;;;;;;5052430;28;20033;-83
2022/03/06 23:16:55;;;;;;;57.15;30.67;;;;;;;;;;5053084;28;20071;-83
2022/03/06 23:19:21;;;;;;;54.88;31.00;;;;;;;;;;5051942;28;20025;-84
2022/03/06 23:21:47;;;;;;;60.00;32.72;;;;;;;;;;5051436;28;20091;-83
2022/03/06 23:24:16;;;;;;;58.95;29.50;;;;;;;;;;5051643;28;20060;-83
2022/03/06 23:26:42;;;;;;;71.53;36.55;;;;;;;;;;5051939;28;20025;-83
2022/03/06 23:29:08;;;;;;;63.97;31.15;;;;;;;;;;5049672;28;20040;-83
2022/03/06 23:31:34;;;;;;;60.05;32.17;;;;;;;;;;5050874;28;20037;-82
2022/03/06 23:34:00;;;;;;;59.70;27.85;;;;;;;;;;5050976;28;20025;-83
2022/03/06 23:36:26;;;;;;;53.83;28.77;;;;;;;;;;5050793;28;20159;-83
2022/03/06 23:38:52;;;;;;;56.60;27.42;;;;;;;;;;5050853;28;20366;-83
2022/03/06 23:41:18;;;;;;;61.42;31.50;;;;;;;;;;5049495;28;20100;-83
2022/03/06 23:43:45;;;;;;;51.08;28.10;;;;;;;;;;5050262;28;20112;-85
2022/03/06 23:46:11;;;;;;;59.35;34.30;;;;;;;;;;5049480;28;20017;-83
2022/03/06 23:48:37;;;;;;;52.53;27.33;;;;;;;;;;5050382;28;20340;-83
2022/03/06 23:51:05;;;;;;;56.33;29.38;;;;;;;;;;5050318;28;20029;-83
2022/03/06 23:53:31;;;;;;;59.05;29.33;;;;;;;;;;5050627;28;20040;-83
2022/03/06 23:55:58;;;;;;;51.65;28.15;;;;;;;;;;5050917;28;20021;-93
2022/03/06 23:58:24;;;;;;;51.92;26.65;;;;;;;;;;5049610;28;20062;-84
